sensor_id;sensor_type;location;lat;lon;timestamp;pressure;altitude;pressure_sealevel;temperature;humidity
74973;BME280;63529;56.320;43.990;2023-01-16T00:00:57;100649.84;;;13.56;44.95
74973;BME280;63529;56.320;43.990;2023-01-16T00:03:23;100642.63;;;13.56;45.02
74973;BME280;63529;56.320;43.990;2023-01-16T00:05:50;100639.94;;;13.56;45.04
74973;BME280;63529;56.320;43.990;2023-01-16T00:08:16;100629.22;;;13.56;45.14
74973;BME280;63529;56.320;43.990;2023-01-16T00:10:43;100635.09;;;13.58;45.02
74973;BME280;63529;56.320;43.990;2023-01-16T00:13:13;100639.66;;;13.58;45.07
74973;BME280;63529;56.320;43.990;2023-01-16T00:15:47;100640.47;;;13.58;45.00
74973;BME280;63529;56.320;43.990;2023-01-16T00:18:14;100625.19;;;13.59;44.95
74973;BME280;63529;56.320;43.990;2023-01-16T00:20:40;100630.56;;;13.59;45.11
74973;BME280;63529;56.320;43.990;2023-01-16T00:23:06;100624.09;;;13.60;45.00
74973;BME280;63529;56.320;43.990;2023-01-16T00:25:32;100616.88;;;13.61;44.93
74973;BME280;63529;56.320;43.990;2023-01-16T00:27:58;100613.38;;;13.60;44.80
74973;BME280;63529;56.320;43.990;2023-01-16T00:30:24;100612.84;;;13.58;44.75
74973;BME280;63529;56.320;43.990;2023-01-16T00:32:50;100616.34;;;13.58;44.67
74973;BME280;63529;56.320;43.990;2023-01-16T00:35:16;100611.50;;;13.61;44.68
74973;BME280;63529;56.320;43.990;2023-01-16T00:37:42;100612.31;;;13.61;44.71
74973;BME280;63529;56.320;43.990;2023-01-16T00:40:08;100605.88;;;13.62;44.76
74973;BME280;63529;56.320;43.990;2023-01-16T00:42:34;100607.75;;;13.62;44.71
74973;BME280;63529;56.320;43.990;2023-01-16T00:45:00;100588.97;;;13.62;44.77
74973;BME280;63529;56.320;43.990;2023-01-16T00:47:26;100593.25;;;13.63;44.90
74973;BME280;63529;56.320;43.990;2023-01-16T00:49:52;100593.25;;;13.63;44.64
74973;BME280;63529;56.320;43.990;2023-01-16T00:52:18;100605.88;;;13.62;44.71
74973;BME280;63529;56.320;43.990;2023-01-16T00:54:44;100602.13;;;13.63;44.79
74973;BME280;63529;56.320;43.990;2023-01-16T00:57:10;100602.94;;;13.64;44.67
74973;BME280;63529;56.320;43.990;2023-01-16T00:59:36;100602.38;;;13.62;44.72
74973;BME280;63529;56.320;43.990;2023-01-16T01:02:02;100597.81;;;13.62;44.69
74973;BME280;63529;56.320;43.990;2023-01-16T01:04:28;100598.63;;;13.63;44.65
74973;BME280;63529;56.320;43.990;2023-01-16T01:06:54;100577.16;;;13.63;44.63
74973;BME280;63529;56.320;43.990;2023-01-16T01:09:20;100584.16;;;13.64;44.73
74973;BME280;63529;56.320;43.990;2023-01-16T01:11:46;100573.16;;;13.65;44.71
74973;BME280;63529;56.320;43.990;2023-01-16T01:14:12;100572.38;;;13.65;44.58
74973;BME280;63529;56.320;43.990;2023-01-16T01:16:38;100576.13;;;13.64;44.33
74973;BME280;63529;56.320;43.990;2023-01-16T01:19:05;100579.34;;;13.66;44.55
74973;BME280;63529;56.320;43.990;2023-01-16T01:21:32;100576.13;;;13.64;44.63
74973;BME280;63529;56.320;43.990;2023-01-16T01:23:57;100563.50;;;13.64;44.60
74973;BME280;63529;56.320;43.990;2023-01-16T01:26:23;100570.47;;;13.65;44.55
74973;BME280;63529;56.320;43.990;2023-01-16T01:28:49;100570.47;;;13.65;44.56
74973;BME280;63529;56.320;43.990;2023-01-16T01:31:15;100561.34;;;13.66;44.64
74973;BME280;63529;56.320;43.990;2023-01-16T01:33:41;100555.19;;;13.66;44.58
74973;BME280;63529;56.320;43.990;2023-01-16T01:36:07;100565.66;;;13.67;44.52
74973;BME280;63529;56.320;43.990;2023-01-16T01:38:34;100552.25;;;13.67;44.56
74973;BME280;63529;56.320;43.990;2023-01-16T01:41:00;100552.25;;;13.67;44.44
74973;BME280;63529;56.320;43.990;2023-01-16T01:43:44;100546.88;;;13.67;44.54
74973;BME280;63529;56.320;43.990;2023-01-16T01:48:48;100563.78;;;13.68;44.50
74973;BME280;63529;56.320;43.990;2023-01-16T01:51:24;100567.25;;;13.68;44.36
74973;BME280;63529;56.320;43.990;2023-01-16T01:53:55;100568.91;;;13.69;44.34
74973;BME280;63529;56.320;43.990;2023-01-16T01:56:34;100563.78;;;13.68;44.35
74973;BME280;63529;56.320;43.990;2023-01-16T01:59:08;100568.06;;;13.69;44.30
74973;BME280;63529;56.320;43.990;2023-01-16T02:01:37;100567.00;;;13.70;44.43
74973;BME280;63529;56.320;43.990;2023-01-16T02:04:10;100571.03;;;13.72;44.38
74973;BME280;63529;56.320;43.990;2023-01-16T02:06:45;100572.13;;;13.71;44.46
74973;BME280;63529;56.320;43.990;2023-01-16T02:09:13;100564.59;;;13.73;44.43
74973;BME280;63529;56.320;43.990;2023-01-16T02:12:05;100561.91;;;13.73;44.37
74973;BME280;63529;56.320;43.990;2023-01-16T02:14:36;100573.44;;;13.74;44.29
74973;BME280;63529;56.320;43.990;2023-01-16T02:17:09;100580.69;;;13.73;44.45
74973;BME280;63529;56.320;43.990;2023-01-16T02:38:55;100597.63;;;13.79;44.17
74973;BME280;63529;56.320;43.990;2023-01-16T02:41:50;100587.41;;;13.81;44.21
74973;BME280;63529;56.320;43.990;2023-01-16T02:44:43;100587.41;;;13.81;44.21
74973;BME280;63529;56.320;43.990;2023-01-16T02:52:59;100570.50;;;13.80;44.19
74973;BME280;63529;56.320;43.990;2023-01-16T02:55:34;100577.47;;;13.81;44.11
74973;BME280;63529;56.320;43.990;2023-01-16T02:58:05;100565.16;;;13.80;44.20
74973;BME280;63529;56.320;43.990;2023-01-16T03:00:33;100565.94;;;13.81;44.07
74973;BME280;63529;56.320;43.990;2023-01-16T03:02:59;100568.63;;;13.81;44.07
74973;BME280;63529;56.320;43.990;2023-01-16T03:05:37;100550.41;;;13.83;44.13
74973;BME280;63529;56.320;43.990;2023-01-16T03:08:16;100557.66;;;13.82;44.04
74973;BME280;63529;56.320;43.990;2023-01-16T03:11:10;100560.59;;;13.81;43.98
74973;BME280;63529;56.320;43.990;2023-01-16T03:13:53;100553.09;;;13.83;44.01
74973;BME280;63529;56.320;43.990;2023-01-16T03:16:36;100552.28;;;13.82;44.03
74973;BME280;63529;56.320;43.990;2023-01-16T03:21:58;100534.56;;;13.87;44.02
74973;BME280;63529;56.320;43.990;2023-01-16T03:27:47;100548.25;;;13.85;44.00
74973;BME280;63529;56.320;43.990;2023-01-16T03:33:09;100561.16;;;13.83;43.78
74973;BME280;63529;56.320;43.990;2023-01-16T03:35:46;100568.38;;;13.82;43.77
74973;BME280;63529;56.320;43.990;2023-01-16T03:38:15;100557.66;;;13.82;43.76
74973;BME280;63529;56.320;43.990;2023-01-16T03:40:44;100547.97;;;13.81;43.86
74973;BME280;63529;56.320;43.990;2023-01-16T03:45:49;100542.59;;;13.81;43.83
74973;BME280;63529;56.320;43.990;2023-01-16T03:48:30;100546.09;;;13.82;43.73
74973;BME280;63529;56.320;43.990;2023-01-16T03:51:03;100554.41;;;13.80;43.87
74973;BME280;63529;56.320;43.990;2023-01-16T03:53:35;100557.09;;;13.80;43.94
74973;BME280;63529;56.320;43.990;2023-01-16T03:56:11;100560.59;;;13.81;43.96
74973;BME280;63529;56.320;43.990;2023-01-16T03:58:41;100560.34;;;13.82;43.94
74973;BME280;63529;56.320;43.990;2023-01-16T04:01:18;100555.78;;;13.83;44.18
74973;BME280;63529;56.320;43.990;2023-01-16T04:09:08;100549.34;;;13.84;43.81
74973;BME280;63529;56.320;43.990;2023-01-16T04:11:36;100566.50;;;13.83;43.79
74973;BME280;63529;56.320;43.990;2023-01-16T04:14:05;100557.38;;;13.84;43.76
74973;BME280;63529;56.320;43.990;2023-01-16T04:16:51;100554.97;;;13.82;43.75
74973;BME280;63529;56.320;43.990;2023-01-16T04:19:18;100552.28;;;13.82;43.72
74973;BME280;63529;56.320;43.990;2023-01-16T04:21:46;100553.09;;;13.83;43.67
74973;BME280;63529;56.320;43.990;2023-01-16T04:24:13;100543.97;;;13.84;43.64
74973;BME280;63529;56.320;43.990;2023-01-16T04:26:40;100535.13;;;13.83;43.66
74973;BME280;63529;56.320;43.990;2023-01-16T04:29:06;100526.00;;;13.84;43.67
74973;BME280;63529;56.320;43.990;2023-01-16T04:31:32;100516.84;;;13.85;43.61
74973;BME280;63529;56.320;43.990;2023-01-16T04:33:57;100515.25;;;13.84;43.65
74973;BME280;63529;56.320;43.990;2023-01-16T04:36:23;100519.00;;;13.83;43.83
74973;BME280;63529;56.320;43.990;2023-01-16T04:38:49;100523.03;;;13.86;43.85
74973;BME280;63529;56.320;43.990;2023-01-16T04:41:15;100500.75;;;13.85;43.79
74973;BME280;63529;56.320;43.990;2023-01-16T04:44:06;100499.69;;;13.87;43.65
74973;BME280;63529;56.320;43.990;2023-01-16T04:46:33;100481.97;;;13.85;43.70
74973;BME280;63529;56.320;43.990;2023-01-16T04:48:59;100488.41;;;13.84;43.63
74973;BME280;63529;56.320;43.990;2023-01-16T04:51:25;100504.25;;;13.86;43.59
74973;BME280;63529;56.320;43.990;2023-01-16T04:53:51;100493.22;;;13.88;43.55
74973;BME280;63529;56.320;43.990;2023-01-16T04:56:18;100517.38;;;13.88;43.43
74973;BME280;63529;56.320;43.990;2023-01-16T04:58:43;100502.38;;;13.87;43.53
74973;BME280;63529;56.320;43.990;2023-01-16T05:01:09;100516.31;;;13.89;43.48
74973;BME280;63529;56.320;43.990;2023-01-16T05:03:35;100492.44;;;13.87;43.49
74973;BME280;63529;56.320;43.990;2023-01-16T05:06:01;100488.66;;;13.88;43.37
74973;BME280;63529;56.320;43.990;2023-01-16T05:08:27;100493.22;;;13.88;43.53
74973;BME280;63529;56.320;43.990;2023-01-16T05:10:54;100504.25;;;13.91;43.56
74973;BME280;63529;56.320;43.990;2023-01-16T05:13:21;100497.28;;;13.90;43.60
74973;BME280;63529;56.320;43.990;2023-01-16T05:15:47;100501.28;;;13.93;43.56
74973;BME280;63529;56.320;43.990;2023-01-16T05:18:13;100513.63;;;13.94;43.46
74973;BME280;63529;56.320;43.990;2023-01-16T05:20:39;100499.13;;;13.95;43.57
74973;BME280;63529;56.320;43.990;2023-01-16T05:23:05;100512.31;;;13.96;43.43
74973;BME280;63529;56.320;43.990;2023-01-16T05:25:34;100502.63;;;13.95;43.40
74973;BME280;63529;56.320;43.990;2023-01-16T05:28:00;100502.38;;;13.97;43.33
74973;BME280;63529;56.320;43.990;2023-01-16T05:30:26;100502.38;;;13.97;43.11
74973;BME280;63529;56.320;43.990;2023-01-16T05:32:52;100504.78;;;13.98;43.12
74973;BME280;63529;56.320;43.990;2023-01-16T05:35:18;100506.41;;;13.99;43.15
74973;BME280;63529;56.320;43.990;2023-01-16T05:37:45;100506.41;;;13.99;43.14
74973;BME280;63529;56.320;43.990;2023-01-16T05:40:12;100504.53;;;14.00;43.13
74973;BME280;63529;56.320;43.990;2023-01-16T05:42:41;100499.16;;;14.00;43.14
74973;BME280;63529;56.320;43.990;2023-01-16T05:45:08;100505.88;;;14.02;43.13
74973;BME280;63529;56.320;43.990;2023-01-16T05:47:34;100500.25;;;14.04;43.27
74973;BME280;63529;56.320;43.990;2023-01-16T05:50:00;100515.00;;;14.06;43.28
74973;BME280;63529;56.320;43.990;2023-01-16T05:52:27;100509.34;;;14.08;43.23
74973;BME280;63529;56.320;43.990;2023-01-16T05:54:53;100507.22;;;14.10;43.21
74973;BME280;63529;56.320;43.990;2023-01-16T05:57:20;100516.59;;;14.12;43.26
74973;BME280;63529;56.320;43.990;2023-01-16T05:59:50;100501.31;;;14.13;43.08
74973;BME280;63529;56.320;43.990;2023-01-16T06:02:17;100507.22;;;14.15;43.14
74973;BME280;63529;56.320;43.990;2023-01-16T06:04:43;100499.69;;;14.17;43.17
74973;BME280;63529;56.320;43.990;2023-01-16T06:07:10;100496.75;;;14.19;42.99
74973;BME280;63529;56.320;43.990;2023-01-16T06:09:36;100503.72;;;14.20;42.85
74973;BME280;63529;56.320;43.990;2023-01-16T06:12:02;100488.41;;;14.20;42.73
74973;BME280;63529;56.320;43.990;2023-01-16T06:14:28;100489.78;;;14.23;42.67
74973;BME280;63529;56.320;43.990;2023-01-16T06:16:54;100499.44;;;14.24;42.56
74973;BME280;63529;56.320;43.990;2023-01-16T06:19:20;100495.38;;;14.26;42.35
74973;BME280;63529;56.320;43.990;2023-01-16T06:21:46;100479.81;;;14.28;42.51
74973;BME280;63529;56.320;43.990;2023-01-16T06:24:11;100505.06;;;14.32;42.19
74973;BME280;63529;56.320;43.990;2023-01-16T06:26:37;100487.06;;;14.38;41.91
74973;BME280;63529;56.320;43.990;2023-01-16T06:29:03;100487.06;;;14.43;41.94
74973;BME280;63529;56.320;43.990;2023-01-16T06:31:29;100492.69;;;14.47;41.85
74973;BME280;63529;56.320;43.990;2023-01-16T06:33:56;100481.94;;;14.52;41.80
74973;BME280;63529;56.320;43.990;2023-01-16T06:36:22;100482.47;;;14.54;41.74
74973;BME280;63529;56.320;43.990;2023-01-16T06:38:48;100480.06;;;14.57;41.46
74973;BME280;63529;56.320;43.990;2023-01-16T06:41:14;100477.66;;;14.56;41.50
74973;BME280;63529;56.320;43.990;2023-01-16T06:43:39;100477.38;;;14.57;41.49
74973;BME280;63529;56.320;43.990;2023-01-16T06:46:14;100488.66;;;14.59;41.38
74973;BME280;63529;56.320;43.990;2023-01-16T06:48:40;100481.94;;;14.62;41.32
74973;BME280;63529;56.320;43.990;2023-01-16T06:51:09;100474.41;;;14.64;41.35
74973;BME280;63529;56.320;43.990;2023-01-16T06:53:36;100472.25;;;14.66;41.36
74973;BME280;63529;56.320;43.990;2023-01-16T06:56:02;100476.56;;;14.67;41.26
74973;BME280;63529;56.320;43.990;2023-01-16T06:58:28;100463.38;;;14.65;41.25
74973;BME280;63529;56.320;43.990;2023-01-16T07:00:54;100466.06;;;14.65;41.15
74973;BME280;63529;56.320;43.990;2023-01-16T07:03:21;100459.38;;;14.68;41.11
74973;BME280;63529;56.320;43.990;2023-01-16T07:05:48;100460.16;;;14.69;40.95
74973;BME280;63529;56.320;43.990;2023-01-16T07:08:14;100465.25;;;14.70;40.93
74973;BME280;63529;56.320;43.990;2023-01-16T07:10:40;100459.59;;;14.72;41.03
74973;BME280;63529;56.320;43.990;2023-01-16T07:13:06;100460.41;;;14.72;40.84
74973;BME280;63529;56.320;43.990;2023-01-16T07:15:32;100454.78;;;14.74;40.73
74973;BME280;63529;56.320;43.990;2023-01-16T07:18:17;100458.00;;;14.76;40.69
74973;BME280;63529;56.320;43.990;2023-01-16T07:21:04;100463.09;;;14.77;40.81
74973;BME280;63529;56.320;43.990;2023-01-16T07:23:56;100468.97;;;14.79;40.79
74973;BME280;63529;56.320;43.990;2023-01-16T07:26:25;100459.59;;;14.82;40.80
74973;BME280;63529;56.320;43.990;2023-01-16T07:28:52;100460.91;;;14.84;40.66
74973;BME280;63529;56.320;43.990;2023-01-16T07:31:20;100446.13;;;14.87;40.74
74973;BME280;63529;56.320;43.990;2023-01-16T07:33:46;100444.50;;;14.86;40.58
74973;BME280;63529;56.320;43.990;2023-01-16T07:36:12;100443.69;;;14.85;40.64
74973;BME280;63529;56.320;43.990;2023-01-16T07:38:38;100453.38;;;14.86;40.58
74973;BME280;63529;56.320;43.990;2023-01-16T07:41:04;100446.13;;;14.87;40.79
74973;BME280;63529;56.320;43.990;2023-01-16T07:43:30;100442.59;;;14.86;40.64
74973;BME280;63529;56.320;43.990;2023-01-16T07:45:56;100446.94;;;14.87;40.69
74973;BME280;63529;56.320;43.990;2023-01-16T07:48:22;100450.69;;;14.86;40.62
74973;BME280;63529;56.320;43.990;2023-01-16T07:50:53;100437.78;;;14.88;40.61
74973;BME280;63529;56.320;43.990;2023-01-16T07:53:21;100442.06;;;14.89;40.52
74973;BME280;63529;56.320;43.990;2023-01-16T07:55:52;100424.63;;;14.87;40.59
74973;BME280;63529;56.320;43.990;2023-01-16T07:58:19;100430.81;;;14.87;40.61
74973;BME280;63529;56.320;43.990;2023-01-16T08:00:47;100436.19;;;14.87;40.43
74973;BME280;63529;56.320;43.990;2023-01-16T08:03:13;100442.09;;;14.84;40.42
74973;BME280;63529;56.320;43.990;2023-01-16T08:05:40;100438.09;;;14.82;40.43
74973;BME280;63529;56.320;43.990;2023-01-16T08:08:06;100446.13;;;14.82;40.42
74973;BME280;63529;56.320;43.990;2023-01-16T08:10:32;100437.28;;;14.81;40.50
74973;BME280;63529;56.320;43.990;2023-01-16T08:12:58;100435.69;;;14.80;40.52
74973;BME280;63529;56.320;43.990;2023-01-16T08:15:24;100436.47;;;14.81;40.39
74973;BME280;63529;56.320;43.990;2023-01-16T08:17:50;100436.19;;;14.82;40.40
74973;BME280;63529;56.320;43.990;2023-01-16T08:20:16;100441.56;;;14.82;40.26
74973;BME280;63529;56.320;43.990;2023-01-16T08:22:46;100449.91;;;14.81;40.37
74973;BME280;63529;56.320;43.990;2023-01-16T08:25:13;100438.09;;;14.82;40.48
74973;BME280;63529;56.320;43.990;2023-01-16T08:27:40;100432.72;;;14.82;40.44
74973;BME280;63529;56.320;43.990;2023-01-16T08:30:07;100428.94;;;14.83;40.39
74973;BME280;63529;56.320;43.990;2023-01-16T08:32:33;100427.84;;;14.84;40.39
74973;BME280;63529;56.320;43.990;2023-01-16T08:34:59;100418.19;;;14.83;40.42
74973;BME280;63529;56.320;43.990;2023-01-16T08:37:25;100415.50;;;14.83;40.41
74973;BME280;63529;56.320;43.990;2023-01-16T08:39:51;100410.41;;;14.81;40.37
74973;BME280;63529;56.320;43.990;2023-01-16T08:42:17;100414.19;;;14.80;40.31
74973;BME280;63529;56.320;43.990;2023-01-16T08:45:01;100410.41;;;14.81;40.38
74973;BME280;63529;56.320;43.990;2023-01-16T08:47:45;100410.41;;;14.81;40.30
74973;BME280;63529;56.320;43.990;2023-01-16T08:50:30;100415.78;;;14.81;40.31
74973;BME280;63529;56.320;43.990;2023-01-16T08:53:14;100404.22;;;14.81;40.17
74973;BME280;63529;56.320;43.990;2023-01-16T08:55:40;100404.75;;;14.83;39.95
74973;BME280;63529;56.320;43.990;2023-01-16T08:58:06;100389.94;;;14.85;40.13
74973;BME280;63529;56.320;43.990;2023-01-16T09:00:33;100395.06;;;14.87;39.94
74973;BME280;63529;56.320;43.990;2023-01-16T09:02:59;100384.81;;;14.89;39.85
74973;BME280;63529;56.320;43.990;2023-01-16T09:05:27;100394.50;;;14.90;39.79
74973;BME280;63529;56.320;43.990;2023-01-16T09:07:54;100388.84;;;14.91;39.54
74973;BME280;63529;56.320;43.990;2023-01-16T09:10:20;100383.47;;;14.91;39.50
74973;BME280;63529;56.320;43.990;2023-01-16T09:12:46;100382.91;;;14.95;39.27
74973;BME280;63529;56.320;43.990;2023-01-16T09:15:31;100391.50;;;14.97;39.36
74973;BME280;63529;56.320;43.990;2023-01-16T09:17:57;100385.31;;;14.96;39.03
74973;BME280;63529;56.320;43.990;2023-01-16T09:20:22;100424.56;;;14.97;39.20
74973;BME280;63529;56.320;43.990;2023-01-16T09:22:48;100414.91;;;14.96;39.28
74973;BME280;63529;56.320;43.990;2023-01-16T09:25:14;100433.16;;;14.99;39.16
74973;BME280;63529;56.320;43.990;2023-01-16T09:27:40;100428.59;;;15.00;39.23
74973;BME280;63529;56.320;43.990;2023-01-16T09:30:07;100425.91;;;15.00;39.08
74973;BME280;63529;56.320;43.990;2023-01-16T09:32:33;100415.69;;;15.02;39.10
74973;BME280;63529;56.320;43.990;2023-01-16T09:34:59;100417.28;;;15.03;39.02
74973;BME280;63529;56.320;43.990;2023-01-16T09:37:25;100420.50;;;15.05;38.84
74973;BME280;63529;56.320;43.990;2023-01-16T09:39:50;100413.50;;;15.04;38.71
74973;BME280;63529;56.320;43.990;2023-01-16T09:45:32;100413.22;;;15.05;38.63
74973;BME280;63529;56.320;43.990;2023-01-16T09:48:07;100412.41;;;15.05;38.58
74973;BME280;63529;56.320;43.990;2023-01-16T09:50:39;100414.84;;;15.06;38.50
74973;BME280;63529;56.320;43.990;2023-01-16T09:53:33;100403.00;;;15.07;38.46
74973;BME280;63529;56.320;43.990;2023-01-16T09:56:22;100409.47;;;15.06;38.37
74973;BME280;63529;56.320;43.990;2023-01-16T09:59:43;100395.19;;;15.06;38.47
74973;BME280;63529;56.320;43.990;2023-01-16T10:04:33;100398.97;;;15.05;38.50
74973;BME280;63529;56.320;43.990;2023-01-16T10:12:51;100399.78;;;15.05;38.54
74973;BME280;63529;56.320;43.990;2023-01-16T10:23:43;100394.16;;;15.07;38.84
74973;BME280;63529;56.320;43.990;2023-01-16T10:26:28;100385.03;;;15.03;38.70
74973;BME280;63529;56.320;43.990;2023-01-16T10:31:41;100385.59;;;15.00;38.85
74973;BME280;63529;56.320;43.990;2023-01-16T10:34:14;100385.59;;;15.00;38.91
74973;BME280;63529;56.320;43.990;2023-01-16T10:36:45;100387.72;;;14.98;39.00
74973;BME280;63529;56.320;43.990;2023-01-16T10:39:15;100377.78;;;14.98;39.08
74973;BME280;63529;56.320;43.990;2023-01-16T10:41:48;100384.25;;;14.97;39.37
74973;BME280;63529;56.320;43.990;2023-01-16T10:44:43;100374.84;;;15.00;39.91
74973;BME280;63529;56.320;43.990;2023-01-16T10:47:32;100373.19;;;14.99;40.26
74973;BME280;63529;56.320;43.990;2023-01-16T10:50:19;100388.53;;;14.98;40.63
74973;BME280;63529;56.320;43.990;2023-01-16T10:52:46;100385.03;;;14.98;40.88
74973;BME280;63529;56.320;43.990;2023-01-16T10:55:14;100380.22;;;15.00;41.15
74973;BME280;63529;56.320;43.990;2023-01-16T10:57:55;100386.38;;;15.00;41.31
74973;BME280;63529;56.320;43.990;2023-01-16T11:00:30;100386.38;;;15.00;41.39
74973;BME280;63529;56.320;43.990;2023-01-16T11:03:08;100377.53;;;15.00;41.58
74973;BME280;63529;56.320;43.990;2023-01-16T11:05:36;100380.22;;;15.00;41.62
74973;BME280;63529;56.320;43.990;2023-01-16T11:10:31;100375.88;;;14.99;41.64
74973;BME280;63529;56.320;43.990;2023-01-16T11:12:57;100378.06;;;14.97;41.62
74973;BME280;63529;56.320;43.990;2023-01-16T11:16:01;100382.13;;;14.94;41.57
74973;BME280;63529;56.320;43.990;2023-01-16T11:18:46;100384.81;;;14.94;41.53
74973;BME280;63529;56.320;43.990;2023-01-16T11:21:30;100382.13;;;14.94;41.52
74973;BME280;63529;56.320;43.990;2023-01-16T11:24:05;100389.38;;;14.93;41.60
74973;BME280;63529;56.320;43.990;2023-01-16T11:26:36;100377.00;;;14.92;41.39
74973;BME280;63529;56.320;43.990;2023-01-16T11:29:03;100378.09;;;14.91;41.43
74973;BME280;63529;56.320;43.990;2023-01-16T11:31:30;100377.28;;;14.91;41.46
74973;BME280;63529;56.320;43.990;2023-01-16T11:33:59;100379.16;;;14.90;41.50
74973;BME280;63529;56.320;43.990;2023-01-16T11:36:33;100369.50;;;14.89;41.56
74973;BME280;63529;56.320;43.990;2023-01-16T11:39:03;100387.50;;;14.89;41.45
74973;BME280;63529;56.320;43.990;2023-01-16T11:41:34;100375.97;;;14.88;41.60
74973;BME280;63529;56.320;43.990;2023-01-16T11:44:32;100384.31;;;14.87;41.67
74973;BME280;63529;56.320;43.990;2023-01-16T11:47:21;100380.78;;;14.86;41.70
74973;BME280;63529;56.320;43.990;2023-01-16T11:49:52;100385.38;;;14.86;41.77
74973;BME280;63529;56.320;43.990;2023-01-16T11:52:21;100370.31;;;14.85;41.73
74973;BME280;63529;56.320;43.990;2023-01-16T11:54:58;100375.97;;;14.83;41.98
74973;BME280;63529;56.320;43.990;2023-01-16T12:19:52;100367.69;;;14.75;42.48
74973;BME280;63529;56.320;43.990;2023-01-16T12:22:34;100374.97;;;14.74;42.72
74973;BME280;63529;56.320;43.990;2023-01-16T12:25:43;100372.53;;;14.73;42.78
74973;BME280;63529;56.320;43.990;2023-01-16T12:28:57;100371.72;;;14.72;42.83
74973;BME280;63529;56.320;43.990;2023-01-16T12:42:37;100355.09;;;14.65;43.11
74973;BME280;63529;56.320;43.990;2023-01-16T12:45:47;100347.03;;;14.65;43.11
74973;BME280;63529;56.320;43.990;2023-01-16T12:54:35;100346.00;;;14.61;43.33
74973;BME280;63529;56.320;43.990;2023-01-16T13:00:21;100351.63;;;14.59;43.47
74973;BME280;63529;56.320;43.990;2023-01-16T13:05:23;100344.13;;;14.56;43.57
74973;BME280;63529;56.320;43.990;2023-01-16T13:08:06;100351.13;;;14.57;43.38
74973;BME280;63529;56.320;43.990;2023-01-16T13:10:41;100332.59;;;14.56;43.65
74973;BME280;63529;56.320;43.990;2023-01-16T13:13:35;100343.63;;;14.54;43.47
74973;BME280;63529;56.320;43.990;2023-01-16T13:16:13;100355.16;;;14.55;43.68
74973;BME280;63529;56.320;43.990;2023-01-16T13:18:45;100342.78;;;14.54;43.79
74973;BME280;63529;56.320;43.990;2023-01-16T13:21:22;100360.78;;;14.53;43.71
74973;BME280;63529;56.320;43.990;2023-01-16T13:24:03;100360.00;;;14.53;43.72
74973;BME280;63529;56.320;43.990;2023-01-16T13:26:31;100360.00;;;14.53;43.75
74973;BME280;63529;56.320;43.990;2023-01-16T13:29:06;100361.06;;;14.52;43.71
74973;BME280;63529;56.320;43.990;2023-01-16T13:31:39;100358.38;;;14.52;43.65
74973;BME280;63529;56.320;43.990;2023-01-16T13:42:11;100368.31;;;14.51;43.81
74973;BME280;63529;56.320;43.990;2023-01-16T13:44:44;100372.63;;;14.52;43.78
74973;BME280;63529;56.320;43.990;2023-01-16T13:47:37;100373.69;;;14.51;43.77
74973;BME280;63529;56.320;43.990;2023-01-16T13:50:18;100386.06;;;14.52;43.80
74973;BME280;63529;56.320;43.990;2023-01-16T13:52:46;100390.63;;;14.52;43.65
74973;BME280;63529;56.320;43.990;2023-01-16T13:55:36;100374.50;;;14.52;43.61
74973;BME280;63529;56.320;43.990;2023-01-16T13:58:20;100375.59;;;14.51;43.85
74973;BME280;63529;56.320;43.990;2023-01-16T14:00:56;100377.47;;;14.50;43.87
74973;BME280;63529;56.320;43.990;2023-01-16T14:03:31;100383.94;;;14.49;43.74
74973;BME280;63529;56.320;43.990;2023-01-16T14:20:35;100361.09;;;14.47;43.74
74973;BME280;63529;56.320;43.990;2023-01-16T14:23:29;100350.59;;;14.45;43.76
74973;BME280;63529;56.320;43.990;2023-01-16T14:26:23;100347.09;;;14.45;43.77
74973;BME280;63529;56.320;43.990;2023-01-16T14:28:53;100345.22;;;14.45;43.70
74973;BME280;63529;56.320;43.990;2023-01-16T14:31:21;100346.31;;;14.44;43.77
74973;BME280;63529;56.320;43.990;2023-01-16T14:33:48;100349.00;;;14.44;43.82
74973;BME280;63529;56.320;43.990;2023-01-16T14:36:14;100358.66;;;14.45;43.79
74973;BME280;63529;56.320;43.990;2023-01-16T14:38:45;100350.88;;;14.44;43.65
74973;BME280;63529;56.320;43.990;2023-01-16T14:41:16;100357.03;;;14.44;43.63
74973;BME280;63529;56.320;43.990;2023-01-16T14:44:15;100368.88;;;14.43;43.81
74973;BME280;63529;56.320;43.990;2023-01-16T14:50:10;100364.84;;;14.40;43.76
74973;BME280;63529;56.320;43.990;2023-01-16T14:58:45;100375.56;;;14.40;43.82
74973;BME280;63529;56.320;43.990;2023-01-16T15:01:21;100368.59;;;14.39;43.80
74973;BME280;63529;56.320;43.990;2023-01-16T15:04:13;100368.09;;;14.37;43.61
74973;BME280;63529;56.320;43.990;2023-01-16T15:06:44;100359.22;;;14.37;43.83
74973;BME280;63529;56.320;43.990;2023-01-16T15:09:14;100369.69;;;14.38;43.83
74973;BME280;63529;56.320;43.990;2023-01-16T15:11:47;100358.13;;;14.38;43.84
74973;BME280;63529;56.320;43.990;2023-01-16T15:14:19;100365.91;;;14.39;43.86
74973;BME280;63529;56.320;43.990;2023-01-16T15:22:46;100349.81;;;14.39;43.95
74973;BME280;63529;56.320;43.990;2023-01-16T15:31:01;100357.34;;;14.37;43.58
74973;BME280;63529;56.320;43.990;2023-01-16T15:33:32;100360.81;;;14.38;43.76
74973;BME280;63529;56.320;43.990;2023-01-16T15:36:23;100362.72;;;14.37;43.77
74973;BME280;63529;56.320;43.990;2023-01-16T15:38:55;100362.72;;;14.37;43.80
74973;BME280;63529;56.320;43.990;2023-01-16T15:41:32;100352.78;;;14.38;43.62